sensor_id;sensor_type;location;lat;lon;timestamp;temperature;humidity
24146;DHT22;12308;50.948;4.706;2022-11-15T00:01:12;11.90;99.90
24146;DHT22;12308;50.948;4.706;2022-11-15T00:03:39;11.90;99.90
24146;DHT22;12308;50.948;4.706;2022-11-15T00:06:05;11.80;99.90
24146;DHT22;12308;50.948;4.706;2022-11-15T00:08:31;11.90;99.90
24146;DHT22;12308;50.948;4.706;2022-11-15T00:11:01;11.80;99.90
24146;DHT22;12308;50.948;4.706;2022-11-15T00:13:28;11.90;99.90
24146;DHT22;12308;50.948;4.706;2022-11-15T00:15:57;11.90;99.90
24146;DHT22;12308;50.948;4.706;2022-11-15T00:18:24;12.00;99.90
24146;DHT22;12308;50.948;4.706;2022-11-15T00:20:49;12.00;99.90
24146;DHT22;12308;50.948;4.706;2022-11-15T00:23:15;12.10;99.90
24146;DHT22;12308;50.948;4.706;2022-11-15T00:25:41;12.00;99.90
24146;DHT22;12308;50.948;4.706;2022-11-15T00:28:07;12.00;99.90
24146;DHT22;12308;50.948;4.706;2022-11-15T00:30:33;11.90;99.90
24146;DHT22;12308;50.948;4.706;2022-11-15T00:33:04;12.00;99.90
24146;DHT22;12308;50.948;4.706;2022-11-15T00:35:32;12.10;99.90
24146;DHT22;12308;50.948;4.706;2022-11-15T00:37:59;12.10;99.90
24146;DHT22;12308;50.948;4.706;2022-11-15T00:40:25;12.20;99.90
24146;DHT22;12308;50.948;4.706;2022-11-15T00:42:51;12.20;99.90
24146;DHT22;12308;50.948;4.706;2022-11-15T00:45:17;12.20;99.90
24146;DHT22;12308;50.948;4.706;2022-11-15T00:47:46;12.20;99.90
24146;DHT22;12308;50.948;4.706;2022-11-15T00:50:12;12.10;99.90
24146;DHT22;12308;50.948;4.706;2022-11-15T00:52:38;12.10;99.90
24146;DHT22;12308;50.948;4.706;2022-11-15T00:55:04;12.10;99.90
24146;DHT22;12308;50.948;4.706;2022-11-15T00:57:30;12.20;99.90
24146;DHT22;12308;50.948;4.706;2022-11-15T00:59:55;12.20;99.90
24146;DHT22;12308;50.948;4.706;2022-11-15T01:02:21;12.20;99.90
24146;DHT22;12308;50.948;4.706;2022-11-15T01:04:47;12.20;99.90
24146;DHT22;12308;50.948;4.706;2022-11-15T01:07:12;12.30;99.90
24146;DHT22;12308;50.948;4.706;2022-11-15T01:09:38;12.30;99.90
24146;DHT22;12308;50.948;4.706;2022-11-15T01:12:04;12.30;99.90
24146;DHT22;12308;50.948;4.706;2022-11-15T01:14:30;12.30;99.90
24146;DHT22;12308;50.948;4.706;2022-11-15T01:16:56;12.30;99.90
24146;DHT22;12308;50.948;4.706;2022-11-15T01:19:21;12.30;99.90
24146;DHT22;12308;50.948;4.706;2022-11-15T01:21:50;12.40;99.90
24146;DHT22;12308;50.948;4.706;2022-11-15T01:24:16;12.40;99.90
24146;DHT22;12308;50.948;4.706;2022-11-15T01:26:42;12.40;99.90
24146;DHT22;12308;50.948;4.706;2022-11-15T01:29:07;12.40;99.90
24146;DHT22;12308;50.948;4.706;2022-11-15T01:31:33;12.40;99.90
24146;DHT22;12308;50.948;4.706;2022-11-15T01:33:59;12.40;99.90
24146;DHT22;12308;50.948;4.706;2022-11-15T01:36:24;12.40;99.90
24146;DHT22;12308;50.948;4.706;2022-11-15T01:38:54;12.40;99.90
24146;DHT22;12308;50.948;4.706;2022-11-15T01:41:32;12.40;99.90
24146;DHT22;12308;50.948;4.706;2022-11-15T01:47:08;12.50;99.90
24146;DHT22;12308;50.948;4.706;2022-11-15T01:49:38;12.50;99.90
24146;DHT22;12308;50.948;4.706;2022-11-15T01:52:09;12.50;99.90
24146;DHT22;12308;50.948;4.706;2022-11-15T01:54:37;12.50;99.90
24146;DHT22;12308;50.948;4.706;2022-11-15T01:57:06;12.60;99.90
24146;DHT22;12308;50.948;4.706;2022-11-15T01:59:35;12.60;99.90
24146;DHT22;12308;50.948;4.706;2022-11-15T02:02:01;12.70;99.90
24146;DHT22;12308;50.948;4.706;2022-11-15T02:04:29;12.60;99.90
24146;DHT22;12308;50.948;4.706;2022-11-15T02:06:55;12.60;99.90
24146;DHT22;12308;50.948;4.706;2022-11-15T02:09:21;12.60;99.90
24146;DHT22;12308;50.948;4.706;2022-11-15T02:11:48;12.60;99.90
24146;DHT22;12308;50.948;4.706;2022-11-15T02:14:16;12.60;99.90
24146;DHT22;12308;50.948;4.706;2022-11-15T02:17:01;12.60;99.90
24146;DHT22;12308;50.948;4.706;2022-11-15T02:22:28;12.60;99.90
24146;DHT22;12308;50.948;4.706;2022-11-15T02:33:33;12.70;99.90
24146;DHT22;12308;50.948;4.706;2022-11-15T02:36:02;12.60;99.90
24146;DHT22;12308;50.948;4.706;2022-11-15T02:41:53;12.60;99.90
24146;DHT22;12308;50.948;4.706;2022-11-15T02:44:49;12.60;99.90
24146;DHT22;12308;50.948;4.706;2022-11-15T02:47:16;12.60;99.90
24146;DHT22;12308;50.948;4.706;2022-11-15T02:49:52;12.60;99.90
24146;DHT22;12308;50.948;4.706;2022-11-15T02:52:23;12.70;99.90
24146;DHT22;12308;50.948;4.706;2022-11-15T02:54:58;12.70;99.90
24146;DHT22;12308;50.948;4.706;2022-11-15T02:57:57;12.70;99.90
24146;DHT22;12308;50.948;4.706;2022-11-15T03:00:33;12.60;99.90
24146;DHT22;12308;50.948;4.706;2022-11-15T03:19:35;12.80;99.90
24146;DHT22;12308;50.948;4.706;2022-11-15T03:22:09;12.80;99.90
24146;DHT22;12308;50.948;4.706;2022-11-15T03:24:37;12.80;99.90
24146;DHT22;12308;50.948;4.706;2022-11-15T03:27:06;12.80;99.90
24146;DHT22;12308;50.948;4.706;2022-11-15T03:29:43;12.80;99.90
24146;DHT22;12308;50.948;4.706;2022-11-15T03:32:16;12.80;99.90
24146;DHT22;12308;50.948;4.706;2022-11-15T03:37:16;12.90;99.90
24146;DHT22;12308;50.948;4.706;2022-11-15T03:39:43;12.90;99.90
24146;DHT22;12308;50.948;4.706;2022-11-15T03:45:01;12.90;99.90
24146;DHT22;12308;50.948;4.706;2022-11-15T03:47:36;12.80;99.90
24146;DHT22;12308;50.948;4.706;2022-11-15T03:50:17;12.80;99.90
24146;DHT22;12308;50.948;4.706;2022-11-15T03:52:45;12.80;99.90
24146;DHT22;12308;50.948;4.706;2022-11-15T03:55:15;12.80;99.90
24146;DHT22;12308;50.948;4.706;2022-11-15T03:57:41;12.80;99.90
24146;DHT22;12308;50.948;4.706;2022-11-15T04:00:07;12.80;99.90
24146;DHT22;12308;50.948;4.706;2022-11-15T04:02:33;12.90;99.90
24146;DHT22;12308;50.948;4.706;2022-11-15T04:04:58;12.80;99.90
24146;DHT22;12308;50.948;4.706;2022-11-15T04:07:24;12.80;99.90
24146;DHT22;12308;50.948;4.706;2022-11-15T04:09:50;12.80;99.90
24146;DHT22;12308;50.948;4.706;2022-11-15T04:12:33;12.80;99.90
24146;DHT22;12308;50.948;4.706;2022-11-15T04:15:04;12.70;99.90
24146;DHT22;12308;50.948;4.706;2022-11-15T04:20:07;12.70;99.90
24146;DHT22;12308;50.948;4.706;2022-11-15T04:22:53;12.70;99.90
24146;DHT22;12308;50.948;4.706;2022-11-15T04:25:37;12.70;99.90
24146;DHT22;12308;50.948;4.706;2022-11-15T04:28:03;12.60;99.90
24146;DHT22;12308;50.948;4.706;2022-11-15T04:30:29;12.70;99.90
24146;DHT22;12308;50.948;4.706;2022-11-15T04:32:54;12.70;99.90
24146;DHT22;12308;50.948;4.706;2022-11-15T04:35:20;12.70;99.90
24146;DHT22;12308;50.948;4.706;2022-11-15T04:37:46;12.70;99.90
24146;DHT22;12308;50.948;4.706;2022-11-15T04:40:11;12.70;99.90
24146;DHT22;12308;50.948;4.706;2022-11-15T04:42:37;12.70;99.90
24146;DHT22;12308;50.948;4.706;2022-11-15T04:45:03;12.70;99.90
24146;DHT22;12308;50.948;4.706;2022-11-15T04:47:28;12.60;99.90
24146;DHT22;12308;50.948;4.706;2022-11-15T04:49:54;12.60;99.90
24146;DHT22;12308;50.948;4.706;2022-11-15T04:52:20;12.60;99.90
24146;DHT22;12308;50.948;4.706;2022-11-15T04:54:46;12.60;99.90
24146;DHT22;12308;50.948;4.706;2022-11-15T04:57:11;12.50;99.90
24146;DHT22;12308;50.948;4.706;2022-11-15T04:59:37;12.40;99.90
24146;DHT22;12308;50.948;4.706;2022-11-15T05:02:03;12.30;99.90
24146;DHT22;12308;50.948;4.706;2022-11-15T05:04:28;12.20;99.90
24146;DHT22;12308;50.948;4.706;2022-11-15T05:06:54;12.20;99.90
24146;DHT22;12308;50.948;4.706;2022-11-15T05:09:20;12.10;99.90
24146;DHT22;12308;50.948;4.706;2022-11-15T05:11:46;12.10;99.90
24146;DHT22;12308;50.948;4.706;2022-11-15T05:14:12;12.00;99.90
24146;DHT22;12308;50.948;4.706;2022-11-15T05:16:38;11.90;99.90
24146;DHT22;12308;50.948;4.706;2022-11-15T05:19:04;11.90;99.90
24146;DHT22;12308;50.948;4.706;2022-11-15T05:21:30;11.90;99.90
24146;DHT22;12308;50.948;4.706;2022-11-15T05:23:56;11.90;99.90
24146;DHT22;12308;50.948;4.706;2022-11-15T05:26:22;12.00;99.90
24146;DHT22;12308;50.948;4.706;2022-11-15T05:28:53;11.90;99.90
24146;DHT22;12308;50.948;4.706;2022-11-15T05:31:19;11.90;99.90
24146;DHT22;12308;50.948;4.706;2022-11-15T05:33:45;12.00;99.90
24146;DHT22;12308;50.948;4.706;2022-11-15T05:38:46;12.00;99.90
24146;DHT22;12308;50.948;4.706;2022-11-15T05:41:13;11.90;99.90
24146;DHT22;12308;50.948;4.706;2022-11-15T05:43:41;11.90;99.90
24146;DHT22;12308;50.948;4.706;2022-11-15T05:46:07;11.90;99.90
24146;DHT22;12308;50.948;4.706;2022-11-15T05:48:38;11.90;99.90
24146;DHT22;12308;50.948;4.706;2022-11-15T05:51:07;12.00;99.90
24146;DHT22;12308;50.948;4.706;2022-11-15T05:53:33;12.00;99.90
24146;DHT22;12308;50.948;4.706;2022-11-15T05:56:00;12.00;99.90
24146;DHT22;12308;50.948;4.706;2022-11-15T05:58:25;12.00;99.90
24146;DHT22;12308;50.948;4.706;2022-11-15T06:00:51;12.00;99.90
24146;DHT22;12308;50.948;4.706;2022-11-15T06:03:17;11.90;99.90
24146;DHT22;12308;50.948;4.706;2022-11-15T06:05:42;11.80;99.90
24146;DHT22;12308;50.948;4.706;2022-11-15T06:08:08;11.70;99.90
24146;DHT22;12308;50.948;4.706;2022-11-15T06:10:34;11.60;99.90
24146;DHT22;12308;50.948;4.706;2022-11-15T06:13:01;11.50;99.90
24146;DHT22;12308;50.948;4.706;2022-11-15T06:15:27;11.50;99.90
24146;DHT22;12308;50.948;4.706;2022-11-15T06:17:56;11.50;99.90
24146;DHT22;12308;50.948;4.706;2022-11-15T06:20:26;11.50;99.90
24146;DHT22;12308;50.948;4.706;2022-11-15T06:23:00;11.50;99.90
24146;DHT22;12308;50.948;4.706;2022-11-15T06:25:26;11.60;99.90
24146;DHT22;12308;50.948;4.706;2022-11-15T06:27:56;11.60;99.90
24146;DHT22;12308;50.948;4.706;2022-11-15T06:30:23;11.50;99.90
24146;DHT22;12308;50.948;4.706;2022-11-15T06:32:49;11.50;99.90
24146;DHT22;12308;50.948;4.706;2022-11-15T06:35:15;11.40;99.90
24146;DHT22;12308;50.948;4.706;2022-11-15T06:37:41;11.30;99.90
24146;DHT22;12308;50.948;4.706;2022-11-15T06:40:09;11.30;99.90
24146;DHT22;12308;50.948;4.706;2022-11-15T06:42:35;11.20;99.90
24146;DHT22;12308;50.948;4.706;2022-11-15T06:45:01;11.10;99.90
24146;DHT22;12308;50.948;4.706;2022-11-15T06:47:26;11.10;99.90
24146;DHT22;12308;50.948;4.706;2022-11-15T06:49:52;11.00;99.90
24146;DHT22;12308;50.948;4.706;2022-11-15T06:52:18;10.90;99.90
24146;DHT22;12308;50.948;4.706;2022-11-15T06:54:45;11.00;99.90
24146;DHT22;12308;50.948;4.706;2022-11-15T06:57:10;10.90;99.90
24146;DHT22;12308;50.948;4.706;2022-11-15T06:59:36;10.90;99.90
24146;DHT22;12308;50.948;4.706;2022-11-15T07:02:02;10.80;99.90
24146;DHT22;12308;50.948;4.706;2022-11-15T07:04:28;10.80;99.90
24146;DHT22;12308;50.948;4.706;2022-11-15T07:06:54;10.70;99.90
24146;DHT22;12308;50.948;4.706;2022-11-15T07:09:20;10.70;99.90
24146;DHT22;12308;50.948;4.706;2022-11-15T07:11:45;10.70;99.90
24146;DHT22;12308;50.948;4.706;2022-11-15T07:14:11;10.70;99.90
24146;DHT22;12308;50.948;4.706;2022-11-15T07:16:37;10.60;99.90
24146;DHT22;12308;50.948;4.706;2022-11-15T07:19:03;10.60;99.90
24146;DHT22;12308;50.948;4.706;2022-11-15T07:21:29;10.50;99.90
24146;DHT22;12308;50.948;4.706;2022-11-15T07:23:55;10.50;99.90
24146;DHT22;12308;50.948;4.706;2022-11-15T07:26:20;10.40;99.90
24146;DHT22;12308;50.948;4.706;2022-11-15T07:28:46;10.40;99.90
24146;DHT22;12308;50.948;4.706;2022-11-15T07:31:12;10.40;99.90
24146;DHT22;12308;50.948;4.706;2022-11-15T07:33:37;10.50;99.90
24146;DHT22;12308;50.948;4.706;2022-11-15T07:36:05;10.50;99.90
24146;DHT22;12308;50.948;4.706;2022-11-15T07:38:32;10.50;99.90
24146;DHT22;12308;50.948;4.706;2022-11-15T07:40:59;10.50;99.90
24146;DHT22;12308;50.948;4.706;2022-11-15T07:43:25;10.50;99.90
24146;DHT22;12308;50.948;4.706;2022-11-15T07:45:53;10.40;99.90
24146;DHT22;12308;50.948;4.706;2022-11-15T07:48:19;10.40;99.90
24146;DHT22;12308;50.948;4.706;2022-11-15T07:50:45;10.40;99.90
24146;DHT22;12308;50.948;4.706;2022-11-15T07:53:11;10.50;99.90
24146;DHT22;12308;50.948;4.706;2022-11-15T07:55:37;10.60;99.90
24146;DHT22;12308;50.948;4.706;2022-11-15T07:58:07;10.60;99.90
24146;DHT22;12308;50.948;4.706;2022-11-15T08:00:34;10.60;99.90
24146;DHT22;12308;50.948;4.706;2022-11-15T08:03:08;10.60;99.90
24146;DHT22;12308;50.948;4.706;2022-11-15T08:05:35;10.60;99.90
24146;DHT22;12308;50.948;4.706;2022-11-15T08:08:01;10.60;99.90
24146;DHT22;12308;50.948;4.706;2022-11-15T08:10:27;10.60;99.90
24146;DHT22;12308;50.948;4.706;2022-11-15T08:12:58;10.70;99.90
24146;DHT22;12308;50.948;4.706;2022-11-15T08:15:24;10.80;99.90
24146;DHT22;12308;50.948;4.706;2022-11-15T08:17:57;10.70;99.90
24146;DHT22;12308;50.948;4.706;2022-11-15T08:20:23;10.80;99.90
24146;DHT22;12308;50.948;4.706;2022-11-15T08:22:50;10.90;99.90
24146;DHT22;12308;50.948;4.706;2022-11-15T08:25:15;10.90;99.90
24146;DHT22;12308;50.948;4.706;2022-11-15T08:27:41;10.90;99.90
24146;DHT22;12308;50.948;4.706;2022-11-15T08:30:07;11.00;99.90
24146;DHT22;12308;50.948;4.706;2022-11-15T08:32:33;10.90;99.90
24146;DHT22;12308;50.948;4.706;2022-11-15T08:34:59;11.10;99.90
24146;DHT22;12308;50.948;4.706;2022-11-15T08:37:25;11.20;99.90
24146;DHT22;12308;50.948;4.706;2022-11-15T08:39:50;11.20;99.90
24146;DHT22;12308;50.948;4.706;2022-11-15T08:42:16;11.20;99.90
24146;DHT22;12308;50.948;4.706;2022-11-15T08:44:42;11.20;99.90
24146;DHT22;12308;50.948;4.706;2022-11-15T08:47:08;11.20;99.90
24146;DHT22;12308;50.948;4.706;2022-11-15T08:49:36;11.20;99.90
24146;DHT22;12308;50.948;4.706;2022-11-15T08:52:01;11.30;99.90
24146;DHT22;12308;50.948;4.706;2022-11-15T08:54:27;11.30;99.90
24146;DHT22;12308;50.948;4.706;2022-11-15T08:56:53;11.30;99.90
24146;DHT22;12308;50.948;4.706;2022-11-15T08:59:18;11.30;99.90
24146;DHT22;12308;50.948;4.706;2022-11-15T09:01:44;11.30;99.90
24146;DHT22;12308;50.948;4.706;2022-11-15T09:04:10;11.30;99.90
24146;DHT22;12308;50.948;4.706;2022-11-15T09:06:35;11.40;99.90
24146;DHT22;12308;50.948;4.706;2022-11-15T09:09:01;11.60;99.90
24146;DHT22;12308;50.948;4.706;2022-11-15T09:11:27;11.50;99.90
24146;DHT22;12308;50.948;4.706;2022-11-15T09:13:53;11.60;99.90
24146;DHT22;12308;50.948;4.706;2022-11-15T09:16:19;11.70;99.90
24146;DHT22;12308;50.948;4.706;2022-11-15T09:18:44;11.60;99.90
24146;DHT22;12308;50.948;4.706;2022-11-15T09:21:10;11.70;99.90
24146;DHT22;12308;50.948;4.706;2022-11-15T09:23:36;11.80;99.90
24146;DHT22;12308;50.948;4.706;2022-11-15T09:26:03;12.00;99.90
24146;DHT22;12308;50.948;4.706;2022-11-15T09:28:30;12.20;99.90
24146;DHT22;12308;50.948;4.706;2022-11-15T09:31:00;12.30;99.90
24146;DHT22;12308;50.948;4.706;2022-11-15T09:33:26;12.30;99.90
24146;DHT22;12308;50.948;4.706;2022-11-15T09:35:52;12.30;99.90
24146;DHT22;12308;50.948;4.706;2022-11-15T09:38:18;12.20;99.90
24146;DHT22;12308;50.948;4.706;2022-11-15T09:40:47;12.20;99.90
24146;DHT22;12308;50.948;4.706;2022-11-15T09:43:28;12.10;99.90
24146;DHT22;12308;50.948;4.706;2022-11-15T09:47:14;12.10;99.90
24146;DHT22;12308;50.948;4.706;2022-11-15T09:49:04;12.20;99.90
24146;DHT22;12308;50.948;4.706;2022-11-15T09:51:43;12.30;99.90
24146;DHT22;12308;50.948;4.706;2022-11-15T09:54:31;12.30;99.90
24146;DHT22;12308;50.948;4.706;2022-11-15T09:57:05;12.50;99.90
24146;DHT22;12308;50.948;4.706;2022-11-15T09:59:40;12.60;99.90
24146;DHT22;12308;50.948;4.706;2022-11-15T10:04:34;12.60;99.90
24146;DHT22;12308;50.948;4.706;2022-11-15T10:12:13;12.80;99.90
24146;DHT22;12308;50.948;4.706;2022-11-15T10:14:39;12.90;99.90
24146;DHT22;12308;50.948;4.706;2022-11-15T10:20:07;12.90;99.90
24146;DHT22;12308;50.948;4.706;2022-11-15T10:22:46;13.00;99.90
24146;DHT22;12308;50.948;4.706;2022-11-15T10:25:23;13.00;99.90
24146;DHT22;12308;50.948;4.706;2022-11-15T10:27:58;13.10;99.90
24146;DHT22;12308;50.948;4.706;2022-11-15T10:30:31;13.20;99.90
24146;DHT22;12308;50.948;4.706;2022-11-15T10:32:57;13.10;99.90
24146;DHT22;12308;50.948;4.706;2022-11-15T10:35:29;13.10;99.90
24146;DHT22;12308;50.948;4.706;2022-11-15T10:38:06;13.10;99.90
24146;DHT22;12308;50.948;4.706;2022-11-15T10:40:33;13.10;99.90
24146;DHT22;12308;50.948;4.706;2022-11-15T10:45:32;13.00;99.90
24146;DHT22;12308;50.948;4.706;2022-11-15T10:50:45;12.90;99.90
24146;DHT22;12308;50.948;4.706;2022-11-15T10:55:49;12.80;99.90
24146;DHT22;12308;50.948;4.706;2022-11-15T10:58:35;12.80;99.90
24146;DHT22;12308;50.948;4.706;2022-11-15T11:01:17;13.00;99.90
24146;DHT22;12308;50.948;4.706;2022-11-15T11:03:43;13.10;99.90
24146;DHT22;12308;50.948;4.706;2022-11-15T11:06:15;13.20;99.90
24146;DHT22;12308;50.948;4.706;2022-11-15T11:08:57;13.10;99.90
24146;DHT22;12308;50.948;4.706;2022-11-15T11:11:24;13.40;99.90
24146;DHT22;12308;50.948;4.706;2022-11-15T11:13:50;13.50;99.90
24146;DHT22;12308;50.948;4.706;2022-11-15T11:16:26;13.60;99.90
24146;DHT22;12308;50.948;4.706;2022-11-15T11:19:26;13.60;99.90
24146;DHT22;12308;50.948;4.706;2022-11-15T11:25:53;13.80;99.90
24146;DHT22;12308;50.948;4.706;2022-11-15T11:28:25;13.90;99.90
24146;DHT22;12308;50.948;4.706;2022-11-15T11:33:38;14.10;99.90
24146;DHT22;12308;50.948;4.706;2022-11-15T11:36:25;14.20;99.90
24146;DHT22;12308;50.948;4.706;2022-11-15T11:42:07;14.20;99.90
24146;DHT22;12308;50.948;4.706;2022-11-15T11:47:11;14.10;99.90
24146;DHT22;12308;50.948;4.706;2022-11-15T11:49:48;14.20;99.90
24146;DHT22;12308;50.948;4.706;2022-11-15T11:52:38;14.30;99.90
24146;DHT22;12308;50.948;4.706;2022-11-15T11:55:30;14.50;99.90
24146;DHT22;12308;50.948;4.706;2022-11-15T11:58:05;14.40;99.90
24146;DHT22;12308;50.948;4.706;2022-11-15T12:00:40;14.60;99.90
24146;DHT22;12308;50.948;4.706;2022-11-15T12:03:38;14.60;99.90
24146;DHT22;12308;50.948;4.706;2022-11-15T12:09:00;14.60;99.90
24146;DHT22;12308;50.948;4.706;2022-11-15T12:14:29;14.50;99.90
24146;DHT22;12308;50.948;4.706;2022-11-15T12:16:57;14.50;99.90
24146;DHT22;12308;50.948;4.706;2022-11-15T12:19:24;14.50;99.90
24146;DHT22;12308;50.948;4.706;2022-11-15T12:21:53;14.60;99.90
24146;DHT22;12308;50.948;4.706;2022-11-15T12:24:28;14.50;99.90
24146;DHT22;12308;50.948;4.706;2022-11-15T12:27:04;14.50;99.90
24146;DHT22;12308;50.948;4.706;2022-11-15T12:29:38;14.70;99.90
24146;DHT22;12308;50.948;4.706;2022-11-15T12:32:06;14.70;99.90
24146;DHT22;12308;50.948;4.706;2022-11-15T12:34:43;14.60;99.90
24146;DHT22;12308;50.948;4.706;2022-11-15T12:45:42;14.30;99.90
24146;DHT22;12308;50.948;4.706;2022-11-15T12:50:53;14.30;99.90
24146;DHT22;12308;50.948;4.706;2022-11-15T12:56:09;14.50;99.90
24146;DHT22;12308;50.948;4.706;2022-11-15T12:58:53;14.40;99.90
24146;DHT22;12308;50.948;4.706;2022-11-15T13:06:45;14.50;99.90
24146;DHT22;12308;50.948;4.706;2022-11-15T13:17:49;14.60;99.90
24146;DHT22;12308;50.948;4.706;2022-11-15T13:31:01;15.00;99.90
24146;DHT22;12308;50.948;4.706;2022-11-15T13:33:39;14.90;99.90
24146;DHT22;12308;50.948;4.706;2022-11-15T13:36:18;14.80;99.90
24146;DHT22;12308;50.948;4.706;2022-11-15T13:39:01;14.70;99.90
24146;DHT22;12308;50.948;4.706;2022-11-15T13:41:35;14.70;99.90
24146;DHT22;12308;50.948;4.706;2022-11-15T13:44:03;14.80;99.90
24146;DHT22;12308;50.948;4.706;2022-11-15T13:46:30;14.70;99.90
24146;DHT22;12308;50.948;4.706;2022-11-15T13:49:03;14.60;99.90
24146;DHT22;12308;50.948;4.706;2022-11-15T13:51:35;14.60;99.90
24146;DHT22;12308;50.948;4.706;2022-11-15T13:56:53;14.70;99.90
24146;DHT22;12308;50.948;4.706;2022-11-15T13:59:33;14.70;99.90
24146;DHT22;12308;50.948;4.706;2022-11-15T14:02:11;14.60;99.90
24146;DHT22;12308;50.948;4.706;2022-11-15T14:04:42;14.60;99.90
24146;DHT22;12308;50.948;4.706;2022-11-15T14:07:17;14.50;99.90
24146;DHT22;12308;50.948;4.706;2022-11-15T14:09:43;14.60;99.90
24146;DHT22;12308;50.948;4.706;2022-11-15T14:14:56;14.60;99.90
24146;DHT22;12308;50.948;4.706;2022-11-15T14:19:57;14.50;99.90
24146;DHT22;12308;50.948;4.706;2022-11-15T14:22:23;14.60;99.90
24146;DHT22;12308;50.948;4.706;2022-11-15T14:25:17;14.70;99.90
24146;DHT22;12308;50.948;4.706;2022-11-15T14:30:32;14.60;99.90
24146;DHT22;12308;50.948;4.706;2022-11-15T14:32:58;14.60;99.90
24146;DHT22;12308;50.948;4.706;2022-11-15T14:35:24;14.70;99.90
24146;DHT22;12308;50.948;4.706;2022-11-15T14:37:49;14.70;99.90
24146;DHT22;12308;50.948;4.706;2022-11-15T14:40:17;14.60;99.90
24146;DHT22;12308;50.948;4.706;2022-11-15T14:42:48;14.40;99.90
24146;DHT22;12308;50.948;4.706;2022-11-15T14:45:20;14.40;99.90
24146;DHT22;12308;50.948;4.706;2022-11-15T14:47:46;14.40;99.90
24146;DHT22;12308;50.948;4.706;2022-11-15T14:50:17;14.20;99.90
24146;DHT22;12308;50.948;4.706;2022-11-15T14:52:43;14.00;99.90
24146;DHT22;12308;50.948;4.706;2022-11-15T14:57:45;13.90;99.90
24146;DHT22;12308;50.948;4.706;2022-11-15T15:00:11;13.90;99.90
24146;DHT22;12308;50.948;4.706;2022-11-15T15:02:37;13.80;99.90
24146;DHT22;12308;50.948;4.706;2022-11-15T15:05:15;13.70;99.90
24146;DHT22;12308;50.948;4.706;2022-11-15T15:07:41;13.60;99.90
24146;DHT22;12308;50.948;4.706;2022-11-15T15:10:08;13.60;99.90
24146;DHT22;12308;50.948;4.706;2022-11-15T15:12:33;13.50;99.90
24146;DHT22;12308;50.948;4.706;2022-11-15T15:14:59;13.50;99.90
24146;DHT22;12308;50.948;4.706;2022-11-15T15:17:25;13.60;99.90
24146;DHT22;12308;50.948;4.706;2022-11-15T15:19:50;13.50;99.90
24146;DHT22;12308;50.948;4.706;2022-11-15T15:22:17;13.50;99.90
24146;DHT22;12308;50.948;4.706;2022-11-15T15:24:44;13.60;99.90
24146;DHT22;12308;50.948;4.706;2022-11-15T15:27:10;13.50;99.90
24146;DHT22;12308;50.948;4.706;2022-11-15T15:29:36;13.50;99.90
24146;DHT22;12308;50.948;4.706;2022-11-15T15:32:03;13.50;99.90
24146;DHT22;12308;50.948;4.706;2022-11-15T15:34:28;13.30;99.90
24146;DHT22;12308;50.948;4.706;2022-11-15T15:37:23;13.40;99.90
24146;DHT22;12308;50.948;4.706;2022-11-15T15:39:56;13.50;99.90
24146;DHT22;12308;50.948;4.706;2022-11-15T15:42:22;13.40;99.90
24146;DHT22;12308;50.948;4.706;2022-11-15T15:44:49;13.30;99.90
24146;DHT22;12308;50.948;4.706;2022-11-15T15:49:43;13.20;99.90
24146;DHT22;12308;50.948;4.706;2022-11-15T15:52:09;13.20;99.90
24146;DHT22;12308;50.948;4.706;2022-11-15T15:54:35;13.30;99.90
24146;DHT22;12308;50.948;4.706;2022-11-15T15:57:00;13.20;99.90
24146;DHT22;12308;50.948;4.706;2022-11-15T15:59:26;13.30;99.90
24146;DHT22;12308;50.948;4.706;2022-11-15T16:01:51;13.20;99.90
24146;DHT22;12308;50.948;4.706;2022-11-15T16:04:17;13.20;99.90
24146;DHT22;12308;50.948;4.706;2022-11-15T16:06:44;13.20;99.90
24146;DHT22;12308;50.948;4.706;2022-11-15T16:09:14;13.10;99.90
24146;DHT22;12308;50.948;4.706;2022-11-15T16:11:41;13.20;99.90
24146;DHT22;12308;50.948;4.706;2022-11-15T16:14:07;13.10;99.90
24146;DHT22;12308;50.948;4.706;2022-11-15T16:16:34;13.20;99.90
24146;DHT22;12308;50.948;4.706;2022-11-15T16:19:00;13.20;99.90
24146;DHT22;12308;50.948;4.706;2022-11-15T16:21:27;13.20;99.90
24146;DHT22;12308;50.948;4.706;2022-11-15T16:23:53;13.20;99.90
24146;DHT22;12308;50.948;4.706;2022-11-15T16:26:25;13.20;99.90
24146;DHT22;12308;50.948;4.706;2022-11-15T16:28:51;13.20;99.90
24146;DHT22;12308;50.948;4.706;2022-11-15T16:31:17;13.20;99.90
24146;DHT22;12308;50.948;4.706;2022-11-15T16:33:45;13.10;99.90
24146;DHT22;12308;50.948;4.706;2022-11-15T16:36:23;13.10;99.90
24146;DHT22;12308;50.948;4.706;2022-11-15T16:38:50;13.20;99.90
24146;DHT22;12308;50.948;4.706;2022-11-15T16:41:16;13.10;99.90
24146;DHT22;12308;50.948;4.706;2022-11-15T16:43:47;13.10;99.90
24146;DHT22;12308;50.948;4.706;2022-11-15T16:46:19;13.20;99.90
24146;DHT22;12308;50.948;4.706;2022-11-15T16:48:45;13.10;99.90
24146;DHT22;12308;50.948;4.706;2022-11-15T16:51:11;13.10;99.90
24146;DHT22;12308;50.948;4.706;2022-11-15T16:53:36;13.10;99.90
24146;DHT22;12308;50.948;4.706;2022-11-15T16:56:03;13.10;99.90
24146;DHT22;12308;50.948;4.706;2022-11-15T16:58:28;13.10;99.90
24146;DHT22;12308;50.948;4.706;2022-11-15T17:00:55;13.10;99.90
24146;DHT22;12308;50.948;4.706;2022-11-15T17:03:22;13.00;99.90
24146;DHT22;12308;50.948;4.706;2022-11-15T17:05:48;13.10;99.90
24146;DHT22;12308;50.948;4.706;2022-11-15T17:08:14;13.00;99.90
24146;DHT22;12308;50.948;4.706;2022-11-15T17:10:40;13.10;99.90
24146;DHT22;12308;50.948;4.706;2022-11-15T17:13:09;13.20;99.90
24146;DHT22;12308;50.948;4.706;2022-11-15T17:15:36;13.10;99.90
24146;DHT22;12308;50.948;4.706;2022-11-15T17:18:02;13.20;99.90
24146;DHT22;12308;50.948;4.706;2022-11-15T17:20:27;13.20;99.90
24146;DHT22;12308;50.948;4.706;2022-11-15T17:22:53;13.10;99.90
24146;DHT22;12308;50.948;4.706;2022-11-15T17:25:19;13.20;99.90
24146;DHT22;12308;50.948;4.706;2022-11-15T17:27:45;13.20;99.90
24146;DHT22;12308;50.948;4.706;2022-11-15T17:30:14;13.20;99.90
24146;DHT22;12308;50.948;4.706;2022-11-15T17:32:41;13.20;99.90
24146;DHT22;12308;50.948;4.706;2022-11-15T17:35:08;13.20;99.90
24146;DHT22;12308;50.948;4.706;2022-11-15T17:37:35;13.20;99.90
24146;DHT22;12308;50.948;4.706;2022-11-15T17:40:01;13.20;99.90
24146;DHT22;12308;50.948;4.706;2022-11-15T17:42:27;13.20;99.90
24146;DHT22;12308;50.948;4.706;2022-11-15T17:44:53;13.20;99.90
24146;DHT22;12308;50.948;4.706;2022-11-15T17:47:18;13.20;99.90
24146;DHT22;12308;50.948;4.706;2022-11-15T17:49:44;13.30;99.90
24146;DHT22;12308;50.948;4.706;2022-11-15T17:52:18;13.30;99.90
24146;DHT22;12308;50.948;4.706;2022-11-15T17:54:44;13.30;99.90
24146;DHT22;12308;50.948;4.706;2022-11-15T17:57:09;13.20;99.90